Time;durP1;ratioP1;P1;durP2;ratioP2;P2;SDS_P1;SDS_P2;PMS_P1;PMS_P2;Temp;Humidity;BMP_temperature;BMP_pressure;BME280_temperature;BME280_humidity;BME280_pressure;Samples;Min_cycle;Max_cycle;Signal;HPM_P1;HPM_P2
2021/08/11 00:00:42;;;;;;;;;;;;;;;;;;2147728;67;1086;-90
2021/08/11 00:03:08;;;;;;;;;;;;;;;;;;2148382;67;1412;-91
2021/08/11 00:05:33;;;;;;;;;;;;;;;;;;2152262;59;1903;-91
2021/08/11 00:07:58;;;;;;;;;;;;;;;;;;2154113;59;928;-89
2021/08/11 00:10:26;;;;;;;;;;;;;;;;;;2154258;67;1306;-89
2021/08/11 00:12:51;;;;;;;;;;;;;;;;;;2154449;59;947;-91
2021/08/11 00:15:16;;;;;;;;;;;;;;;;;;2154059;66;1375;-89
2021/08/11 00:17:42;;;;;;;;;;;;;;;;;;2154903;66;1316;-87
2021/08/11 00:20:09;;;;;;;;;;;;;;;;;;2150897;67;797;-89
2021/08/11 00:22:34;;;;;;;;;;;;;;;;;;2149401;67;1406;-90
2021/08/11 00:25:00;;;;;;;;;;;;;;;;;;2151471;59;1925;-89
2021/08/11 00:27:25;;;;;;;;;;;;;;;;;;2152016;59;975;-89
2021/08/11 00:29:50;;;;;;;;;;;;;;;;;;2151498;67;1427;-88
2021/08/11 00:32:15;;;;;;;;;;;;;;;;;;2151702;67;1310;-90
2021/08/11 00:34:41;;;;;;;;;;;;;;;;;;2151360;67;1415;-90
2021/08/11 00:37:07;;;;;;;;;;;;;;;;;;2151778;59;1296;-89
2021/08/11 00:39:32;;;;;;;;;;;;;;;;;;2151726;67;1290;-90
2021/08/11 00:41:58;;;;;;;;;;;;;;;;;;2151595;59;1343;-89
2021/08/11 00:44:24;;;;;;;;;;;;;;;;;;2149852;66;1898;-89
2021/08/11 00:46:50;;;;;;;;;;;;;;;;;;2147883;67;978;-90
2021/08/11 00:49:16;;;;;;;;;;;;;;;;;;2148155;59;880;-89
2021/08/11 00:51:42;;;;;;;;;;;;;;;;;;2148553;67;1017;-90
2021/08/11 00:54:08;;;;;;;;;;;;;;;;;;2147962;67;1320;-90
2021/08/11 00:56:33;;;;;;;;;;;;;;;;;;2147632;67;1442;-91
2021/08/11 00:58:59;;;;;;;;;;;;;;;;;;2148020;59;1151;-90
2021/08/11 01:01:26;;;;;;;;;;;;;;;;;;2147794;59;950;-91
2021/08/11 01:03:54;;;;;;;;;;;;;;;;;;2147990;67;1977;-91
2021/08/11 01:06:21;;;;;;;;;;;;;;;;;;2147536;59;1363;-90
2021/08/11 01:08:46;;;;;;;;;;;;;;;;;;2148510;59;1036;-90
2021/08/11 01:11:11;;;;;;;;;;;;;;;;;;2148481;59;811;-89
2021/08/11 01:13:37;;;;;;;;;;;;;;;;;;2148727;67;811;-90
2021/08/11 01:16:08;;;;;;;;;;;;;;;;;;2148101;67;1363;-89
2021/08/11 01:18:33;;;;;;;;;;;;;;;;;;2150151;59;1269;-90
2021/08/11 01:21:09;;;;;;;;;;;;;;;;;;2151405;67;1244;-91
2021/08/11 01:23:55;;;;;;;;;;;;;;;;;;2151805;67;1947;-89
2021/08/11 01:26:32;;;;;;;;;;;;;;;;;;2152562;59;1202;-90
2021/08/11 01:29:04;;;;;;;;;;;;;;;;;;2151815;59;977;-89
2021/08/11 01:31:56;;;;;;;;;;;;;;;;;;2151661;66;1232;-90
2021/08/11 01:34:36;;;;;;;;;;;;;;;;;;2151415;67;1312;-91
2021/08/11 01:37:03;;;;;;;;;;;;;;;;;;2151309;67;1316;-90
2021/08/11 01:39:36;;;;;;;;;;;;;;;;;;2151400;59;1265;-89
2021/08/11 01:42:06;;;;;;;;;;;;;;;;;;2151520;59;887;-90
2021/08/11 01:44:38;;;;;;;;;;;;;;;;;;2151609;66;1962;-92
2021/08/11 01:47:05;;;;;;;;;;;;;;;;;;2150834;67;1181;-90
2021/08/11 01:49:33;;;;;;;;;;;;;;;;;;2148119;59;1036;-89
2021/08/11 01:51:59;;;;;;;;;;;;;;;;;;2148206;67;1014;-90
2021/08/11 01:54:27;;;;;;;;;;;;;;;;;;2148532;59;1251;-90
2021/08/11 01:56:54;;;;;;;;;;;;;;;;;;2148188;67;1209;-90
2021/08/11 01:59:21;;;;;;;;;;;;;;;;;;2148892;59;1086;-88
2021/08/11 02:01:46;;;;;;;;;;;;;;;;;;2149425;67;1038;-91
2021/08/11 02:04:12;;;;;;;;;;;;;;;;;;2148759;59;1888;-89
2021/08/11 02:06:44;;;;;;;;;;;;;;;;;;2147883;67;1358;-90
2021/08/11 02:09:10;;;;;;;;;;;;;;;;;;2147658;67;1333;-91
2021/08/11 02:11:38;;;;;;;;;;;;;;;;;;2148088;59;1006;-90
2021/08/11 02:14:03;;;;;;;;;;;;;;;;;;2147615;67;1334;-90
2021/08/11 02:16:29;;;;;;;;;;;;;;;;;;2148273;59;1203;-89
2021/08/11 02:18:54;;;;;;;;;;;;;;;;;;2147578;67;1113;-88
2021/08/11 02:21:20;;;;;;;;;;;;;;;;;;2147935;59;1317;-88
2021/08/11 02:23:45;;;;;;;;;;;;;;;;;;2147756;59;1900;-90
2021/08/11 02:26:23;;;;;;;;;;;;;;;;;;2147784;59;1423;-88
2021/08/11 02:28:51;;;;;;;;;;;;;;;;;;2148437;59;1011;-89
2021/08/11 02:31:27;;;;;;;;;;;;;;;;;;2148146;59;878;-89
2021/08/11 02:33:56;;;;;;;;;;;;;;;;;;2150857;59;1312;-89
2021/08/11 02:36:34;;;;;;;;;;;;;;;;;;2147987;59;1344;-89
2021/08/11 02:39:09;;;;;;;;;;;;;;;;;;2148384;59;860;-91
2021/08/11 02:41:41;;;;;;;;;;;;;;;;;;2148287;59;852;-89
2021/08/11 02:44:21;;;;;;;;;;;;;;;;;;2148165;59;1914;-91
2021/08/11 02:46:48;;;;;;;;;;;;;;;;;;2147541;67;1303;-88
2021/08/11 02:49:19;;;;;;;;;;;;;;;;;;2148017;67;1019;-89
2021/08/11 02:51:45;;;;;;;;;;;;;;;;;;2150668;67;1226;-89
2021/08/11 02:54:22;;;;;;;;;;;;;;;;;;2148235;59;970;-91
2021/08/11 02:56:48;;;;;;;;;;;;;;;;;;2148077;59;824;-90
2021/08/11 02:59:14;;;;;;;;;;;;;;;;;;2147685;67;1257;-90
2021/08/11 03:01:40;;;;;;;;;;;;;;;;;;2148102;67;1195;-88
2021/08/11 03:04:05;;;;;;;;;;;;;;;;;;2151485;59;1938;-88
2021/08/11 03:06:31;;;;;;;;;;;;;;;;;;2151527;67;1174;-88
2021/08/11 03:08:57;;;;;;;;;;;;;;;;;;2151110;67;1496;-89
2021/08/11 03:11:23;;;;;;;;;;;;;;;;;;2151521;59;1318;-89
2021/08/11 03:13:48;;;;;;;;;;;;;;;;;;2150726;67;1390;-89
2021/08/11 03:16:14;;;;;;;;;;;;;;;;;;2151511;59;1190;-89
2021/08/11 03:18:39;;;;;;;;;;;;;;;;;;2149980;59;1194;-92
2021/08/11 03:21:05;;;;;;;;;;;;;;;;;;2147799;59;1003;-90
2021/08/11 03:23:30;;;;;;;;;;;;;;;;;;2147677;59;1384;-90
2021/08/11 03:25:55;;;;;;;;;;;;;;;;;;2147990;59;1976;-88
2021/08/11 03:28:21;;;;;;;;;;;;;;;;;;2146070;59;1474;-91
2021/08/11 03:30:46;;;;;;;;;;;;;;;;;;2144596;67;991;-91
2021/08/11 03:33:11;;;;;;;;;;;;;;;;;;2144895;59;869;-90
2021/08/11 03:35:38;;;;;;;;;;;;;;;;;;2144933;67;1326;-91
2021/08/11 03:38:04;;;;;;;;;;;;;;;;;;2144731;67;1222;-92
2021/08/11 03:40:29;;;;;;;;;;;;;;;;;;2145024;67;828;-91
2021/08/11 03:42:54;;;;;;;;;;;;;;;;;;2145005;67;1527;-92
2021/08/11 03:45:20;;;;;;;;;;;;;;;;;;2145210;59;1970;-90
2021/08/11 03:47:45;;;;;;;;;;;;;;;;;;2145128;59;910;-91
2021/08/11 03:50:11;;;;;;;;;;;;;;;;;;2144641;59;1410;-89
2021/08/11 03:52:37;;;;;;;;;;;;;;;;;;2144245;59;1385;-90
2021/08/11 03:55:02;;;;;;;;;;;;;;;;;;2144660;67;1362;-90
2021/08/11 03:57:27;;;;;;;;;;;;;;;;;;2144927;60;871;-90
2021/08/11 03:59:52;;;;;;;;;;;;;;;;;;2145025;59;1389;-90
2021/08/11 04:02:17;;;;;;;;;;;;;;;;;;2144536;59;1224;-91
2021/08/11 04:05:04;;;;;;;;;;;;;;;;;;2144725;67;1897;-91
2021/08/11 04:07:30;;;;;;;;;;;;;;;;;;2144671;59;852;-90
2021/08/11 04:09:55;;;;;;;;;;;;;;;;;;2144344;67;1309;-90
2021/08/11 04:12:20;;;;;;;;;;;;;;;;;;2145143;67;1196;-91
2021/08/11 04:14:58;;;;;;;;;;;;;;;;;;2145523;67;1432;-91
2021/08/11 04:17:24;;;;;;;;;;;;;;;;;;2144893;59;1028;-90
2021/08/11 04:19:49;;;;;;;;;;;;;;;;;;2144910;59;965;-90
2021/08/11 04:22:14;;;;;;;;;;;;;;;;;;2145423;59;999;-91
2021/08/11 04:24:40;;;;;;;;;;;;;;;;;;2145057;59;1904;-90
2021/08/11 04:27:05;;;;;;;;;;;;;;;;;;2144825;67;1489;-90
2021/08/11 04:29:30;;;;;;;;;;;;;;;;;;2145087;67;1004;-90
2021/08/11 04:31:55;;;;;;;;;;;;;;;;;;2144989;59;1043;-90
2021/08/11 04:34:20;;;;;;;;;;;;;;;;;;2144517;59;1473;-88
2021/08/11 04:36:46;;;;;;;;;;;;;;;;;;2144873;59;970;-90
2021/08/11 04:39:11;;;;;;;;;;;;;;;;;;2145387;59;1294;-90
2021/08/11 04:41:36;;;;;;;;;;;;;;;;;;2144608;59;1289;-91
2021/08/11 04:44:03;;;;;;;;;;;;;;;;;;2144306;67;1901;-90
2021/08/11 04:46:28;;;;;;;;;;;;;;;;;;2144098;59;1331;-91
2021/08/11 04:48:53;;;;;;;;;;;;;;;;;;2144614;67;1175;-88
2021/08/11 04:51:20;;;;;;;;;;;;;;;;;;2144462;59;1195;-89
2021/08/11 04:56:48;;;;;;;;;;;;;;;;;;2146072;59;1228;-89
2021/08/11 04:59:13;;;;;;;;;;;;;;;;;;2146666;67;1276;-90
2021/08/11 05:01:53;;;;;;;;;;;;;;;;;;2147837;67;1042;-88
2021/08/11 05:04:45;;;;;;;;;;;;;;;;;;2144377;59;1925;-90
2021/08/11 05:10:13;;;;;;;;;;;;;;;;;;2149178;59;645;-90
2021/08/11 05:12:59;;;;;;;;;;;;;;;;;;2147938;67;1219;-89
2021/08/11 05:15:33;;;;;;;;;;;;;;;;;;2148230;59;1367;-90
2021/08/11 05:18:08;;;;;;;;;;;;;;;;;;2147648;67;1398;-90
2021/08/11 05:20:36;;;;;;;;;;;;;;;;;;2147746;67;1510;-90
2021/08/11 05:23:01;;;;;;;;;;;;;;;;;;2148360;67;1081;-90
2021/08/11 05:25:27;;;;;;;;;;;;;;;;;;2148455;59;1909;-90
2021/08/11 05:27:52;;;;;;;;;;;;;;;;;;2148221;59;859;-91
2021/08/11 05:30:17;;;;;;;;;;;;;;;;;;2148347;59;1285;-89
2021/08/11 05:32:42;;;;;;;;;;;;;;;;;;2147629;67;1381;-88
2021/08/11 05:35:08;;;;;;;;;;;;;;;;;;2148317;67;1291;-91
2021/08/11 05:37:40;;;;;;;;;;;;;;;;;;2148410;59;1195;-90
2021/08/11 05:40:06;;;;;;;;;;;;;;;;;;2148111;59;960;-91
2021/08/11 05:42:31;;;;;;;;;;;;;;;;;;2146760;59;1306;-91
2021/08/11 05:44:58;;;;;;;;;;;;;;;;;;2143997;59;1913;-90
2021/08/11 05:47:23;;;;;;;;;;;;;;;;;;2144726;59;1487;-89
2021/08/11 05:49:52;;;;;;;;;;;;;;;;;;2147758;67;1368;-90
2021/08/11 05:52:17;;;;;;;;;;;;;;;;;;2145341;67;1024;-90
2021/08/11 05:54:56;;;;;;;;;;;;;;;;;;2151060;67;1302;-91
2021/08/11 05:57:23;;;;;;;;;;;;;;;;;;2145460;59;1032;-90
2021/08/11 05:59:51;;;;;;;;;;;;;;;;;;2147421;67;1394;-90
2021/08/11 06:02:18;;;;;;;;;;;;;;;;;;2143897;59;1113;-91
2021/08/11 06:04:43;;;;;;;;;;;;;;;;;;2143602;59;1900;-91
2021/08/11 06:07:08;;;;;;;;;;;;;;;;;;2146432;67;1271;-90
2021/08/11 06:09:33;;;;;;;;;;;;;;;;;;2147030;60;868;-91
2021/08/11 06:11:59;;;;;;;;;;;;;;;;;;2146978;59;932;-90
2021/08/11 06:14:37;;;;;;;;;;;;;;;;;;2147249;59;1344;-89
2021/08/11 06:17:17;;;;;;;;;;;;;;;;;;2147485;59;1147;-91
2021/08/11 06:19:44;;;;;;;;;;;;;;;;;;2145621;59;1351;-90
2021/08/11 06:22:10;;;;;;;;;;;;;;;;;;2150507;66;855;-90
2021/08/11 06:24:35;;;;;;;;;;;;;;;;;;2149332;59;1925;-90
2021/08/11 06:27:00;;;;;;;;;;;;;;;;;;2144523;59;1140;-90
2021/08/11 06:29:33;;;;;;;;;;;;;;;;;;2144628;59;964;-88
2021/08/11 06:31:58;;;;;;;;;;;;;;;;;;2146620;59;1526;-89
2021/08/11 06:34:24;;;;;;;;;;;;;;;;;;2148016;67;1360;-88
2021/08/11 06:36:53;;;;;;;;;;;;;;;;;;2150073;67;1407;-90
2021/08/11 06:39:18;;;;;;;;;;;;;;;;;;2147243;67;971;-92
2021/08/11 06:41:44;;;;;;;;;;;;;;;;;;2146925;60;1181;-90
2021/08/11 06:44:09;;;;;;;;;;;;;;;;;;2146126;59;1992;-90
2021/08/11 06:46:35;;;;;;;;;;;;;;;;;;2143096;59;1238;-90
2021/08/11 06:49:00;;;;;;;;;;;;;;;;;;2146430;67;981;-89
2021/08/11 06:51:26;;;;;;;;;;;;;;;;;;2146536;59;1745;-90
2021/08/11 06:53:52;;;;;;;;;;;;;;;;;;2146325;67;1411;-90
2021/08/11 06:56:28;;;;;;;;;;;;;;;;;;2146551;59;1414;-90
2021/08/11 06:58:54;;;;;;;;;;;;;;;;;;2144142;67;1124;-91
2021/08/11 07:01:19;;;;;;;;;;;;;;;;;;2146164;59;1357;-90
2021/08/11 07:03:44;;;;;;;;;;;;;;;;;;2145841;59;1416;-90
2021/08/11 07:06:16;;;;;;;;;;;;;;;;;;2146297;67;1969;-91
2021/08/11 07:08:41;;;;;;;;;;;;;;;;;;2145769;67;1245;-87
2021/08/11 07:11:06;;;;;;;;;;;;;;;;;;2146537;59;963;-88
2021/08/11 07:13:37;;;;;;;;;;;;;;;;;;2147018;67;1139;-88
2021/08/11 07:16:03;;;;;;;;;;;;;;;;;;2146979;67;1336;-90
2021/08/11 07:18:28;;;;;;;;;;;;;;;;;;2146486;59;1085;-90
2021/08/11 07:20:54;;;;;;;;;;;;;;;;;;2146820;67;1162;-91
2021/08/11 07:23:19;;;;;;;;;;;;;;;;;;2145086;59;1446;-90
2021/08/11 07:25:44;;;;;;;;;;;;;;;;;;2145896;59;1904;-90
2021/08/11 07:28:12;;;;;;;;;;;;;;;;;;2146238;59;1214;-88
2021/08/11 07:30:41;;;;;;;;;;;;;;;;;;2146514;59;1367;-91
2021/08/11 07:33:07;;;;;;;;;;;;;;;;;;2145345;67;1208;-87
2021/08/11 07:35:33;;;;;;;;;;;;;;;;;;2146319;59;1501;-91
2021/08/11 07:38:35;;;;;;;;;;;;;;;;;;2145874;67;1466;-88
2021/08/11 07:41:01;;;;;;;;;;;;;;;;;;2146163;67;1011;-89
2021/08/11 07:43:37;;;;;;;;;;;;;;;;;;2146383;59;985;-88
2021/08/11 07:46:21;;;;;;;;;;;;;;;;;;2145634;67;1908;-90
2021/08/11 07:48:53;;;;;;;;;;;;;;;;;;2145872;67;1302;-90
2021/08/11 07:51:19;;;;;;;;;;;;;;;;;;2143682;67;1031;-90
2021/08/11 07:53:50;;;;;;;;;;;;;;;;;;2148264;59;1078;-90
2021/08/11 07:56:17;;;;;;;;;;;;;;;;;;2145786;67;1568;-90
2021/08/11 07:58:49;;;;;;;;;;;;;;;;;;2146014;67;1204;-89
2021/08/11 08:01:15;;;;;;;;;;;;;;;;;;2146093;59;1164;-90
2021/08/11 08:03:41;;;;;;;;;;;;;;;;;;2146283;59;939;-90
2021/08/11 08:06:09;;;;;;;;;;;;;;;;;;2146091;59;1959;-91
2021/08/11 08:08:34;;;;;;;;;;;;;;;;;;2146550;67;1359;-90
2021/08/11 08:11:00;;;;;;;;;;;;;;;;;;2146777;67;1243;-90
2021/08/11 08:13:26;;;;;;;;;;;;;;;;;;2147864;59;849;-91
2021/08/11 08:16:08;;;;;;;;;;;;;;;;;;2147178;67;1316;-91
2021/08/11 08:18:33;;;;;;;;;;;;;;;;;;2147181;67;1188;-89
2021/08/11 08:21:04;;;;;;;;;;;;;;;;;;2146948;59;1225;-90
2021/08/11 08:23:38;;;;;;;;;;;;;;;;;;2147026;59;1024;-89
2021/08/11 08:26:04;;;;;;;;;;;;;;;;;;2145389;59;1912;-88
2021/08/11 08:28:29;;;;;;;;;;;;;;;;;;2147069;59;1060;-89
2021/08/11 08:30:58;;;;;;;;;;;;;;;;;;2145926;67;1338;-90
2021/08/11 08:33:23;;;;;;;;;;;;;;;;;;2146507;59;1277;-90
2021/08/11 08:38:42;;;;;;;;;;;;;;;;;;2145847;67;1060;-92
2021/08/11 08:41:14;;;;;;;;;;;;;;;;;;2146116;59;1566;-89
2021/08/11 08:43:47;;;;;;;;;;;;;;;;;;2149583;59;1154;-90
2021/08/11 08:46:20;;;;;;;;;;;;;;;;;;2145133;59;1902;-91
2021/08/11 08:48:46;;;;;;;;;;;;;;;;;;2147410;67;1344;-90
2021/08/11 08:51:13;;;;;;;;;;;;;;;;;;2147047;67;1142;-90
2021/08/11 08:53:53;;;;;;;;;;;;;;;;;;2146772;67;1286;-89
2021/08/11 08:56:23;;;;;;;;;;;;;;;;;;2143386;59;1406;-89
2021/08/11 08:58:48;;;;;;;;;;;;;;;;;;2143351;59;1239;-89
2021/08/11 09:01:15;;;;;;;;;;;;;;;;;;2145897;59;1310;-89
2021/08/11 09:03:40;;;;;;;;;;;;;;;;;;2144730;59;1136;-92
2021/08/11 09:06:05;;;;;;;;;;;;;;;;;;2145992;59;1982;-91
2021/08/11 09:08:54;;;;;;;;;;;;;;;;;;2146785;59;1261;-90
2021/08/11 09:11:19;;;;;;;;;;;;;;;;;;2146464;59;1365;-91
2021/08/11 09:14:06;;;;;;;;;;;;;;;;;;2146664;67;1027;-89
2021/08/11 09:16:31;;;;;;;;;;;;;;;;;;2146498;67;1389;-90
2021/08/11 09:18:56;;;;;;;;;;;;;;;;;;2148961;59;1476;-90
2021/08/11 09:21:24;;;;;;;;;;;;;;;;;;2146229;59;1167;-90
2021/08/11 09:23:49;;;;;;;;;;;;;;;;;;2148869;59;1493;-90
2021/08/11 09:26:21;;;;;;;;;;;;;;;;;;2147808;59;1953;-91
2021/08/11 09:28:47;;;;;;;;;;;;;;;;;;2145758;67;1344;-90
2021/08/11 09:31:19;;;;;;;;;;;;;;;;;;2146108;67;961;-89
2021/08/11 09:33:50;;;;;;;;;;;;;;;;;;2146731;59;1433;-90
2021/08/11 09:36:49;;;;;;;;;;;;;;;;;;2145497;67;1291;-91
2021/08/11 09:39:16;;;;;;;;;;;;;;;;;;2142996;59;1514;-90
2021/08/11 09:41:58;;;;;;;;;;;;;;;;;;2145689;59;1310;-91
2021/08/11 09:44:23;;;;;;;;;;;;;;;;;;2145973;59;1934;-90
2021/08/11 09:47:17;;;;;;;;;;;;;;;;;;2145072;67;1282;-91
2021/08/11 09:49:58;;;;;;;;;;;;;;;;;;2145244;59;1228;-89
2021/08/11 09:52:23;;;;;;;;;;;;;;;;;;2146387;59;1565;-91
2021/08/11 09:55:10;;;;;;;;;;;;;;;;;;2146652;59;1222;-90
2021/08/11 09:57:35;;;;;;;;;;;;;;;;;;2146138;67;1553;-90
2021/08/11 10:03:06;;;;;;;;;;;;;;;;;;2146294;59;1227;-90
2021/08/11 10:05:38;;;;;;;;;;;;;;;;;;2145363;59;1928;-90
2021/08/11 10:08:03;;;;;;;;;;;;;;;;;;2145709;59;1413;-89
2021/08/11 10:10:48;;;;;;;;;;;;;;;;;;2146182;59;1103;-90
2021/08/11 10:13:15;;;;;;;;;;;;;;;;;;2145639;59;1206;-89
2021/08/11 10:15:41;;;;;;;;;;;;;;;;;;2145803;67;1303;-90
2021/08/11 10:18:07;;;;;;;;;;;;;;;;;;2145575;67;1299;-90
2021/08/11 10:20:32;;;;;;;;;;;;;;;;;;2146236;59;990;-89
2021/08/11 10:22:57;;;;;;;;;;;;;;;;;;2145724;59;971;-88
2021/08/11 10:25:23;;;;;;;;;;;;;;;;;;2145209;59;1982;-90
2021/08/11 10:27:48;;;;;;;;;;;;;;;;;;2145591;59;1318;-89
2021/08/11 10:30:14;;;;;;;;;;;;;;;;;;2145863;59;888;-90
2021/08/11 10:32:42;;;;;;;;;;;;;;;;;;2144823;59;1262;-88
2021/08/11 10:35:14;;;;;;;;;;;;;;;;;;2146053;67;1381;-89
2021/08/11 10:37:41;;;;;;;;;;;;;;;;;;2145536;59;1404;-90
2021/08/11 10:40:07;;;;;;;;;;;;;;;;;;2146120;59;1043;-90
2021/08/11 10:42:34;;;;;;;;;;;;;;;;;;2145691;59;1168;-89
2021/08/11 10:45:00;;;;;;;;;;;;;;;;;;2145149;67;1916;-90
2021/08/11 10:47:33;;;;;;;;;;;;;;;;;;2146989;59;1329;-91
2021/08/11 10:50:00;;;;;;;;;;;;;;;;;;2145500;59;1688;-90
2021/08/11 10:52:52;;;;;;;;;;;;;;;;;;2145807;59;1316;-89
2021/08/11 10:55:38;;;;;;;;;;;;;;;;;;2146255;59;1529;-89
2021/08/11 10:58:03;;;;;;;;;;;;;;;;;;2143417;59;1088;-89
2021/08/11 11:00:28;;;;;;;;;;;;;;;;;;2145046;59;1402;-89
2021/08/11 11:02:55;;;;;;;;;;;;;;;;;;2145565;59;1261;-89
2021/08/11 11:05:27;;;;;;;;;;;;;;;;;;2146010;67;1894;-88
2021/08/11 11:08:15;;;;;;;;;;;;;;;;;;2145570;67;1355;-90
2021/08/11 11:10:42;;;;;;;;;;;;;;;;;;2145556;59;1177;-90
2021/08/11 11:13:32;;;;;;;;;;;;;;;;;;2144428;67;1305;-90
2021/08/11 11:16:17;;;;;;;;;;;;;;;;;;2147101;67;1321;-88
2021/08/11 11:19:06;;;;;;;;;;;;;;;;;;2145564;59;1337;-90
2021/08/11 11:21:31;;;;;;;;;;;;;;;;;;2144240;59;1756;-88
2021/08/11 11:23:57;;;;;;;;;;;;;;;;;;2145981;59;1992;-89
2021/08/11 11:26:32;;;;;;;;;;;;;;;;;;2146228;59;1281;-90
2021/08/11 11:29:11;;;;;;;;;;;;;;;;;;2145162;67;1408;-90
2021/08/11 11:31:39;;;;;;;;;;;;;;;;;;2144124;59;1574;-89
2021/08/11 11:34:32;;;;;;;;;;;;;;;;;;2145213;59;1602;-91
2021/08/11 11:36:59;;;;;;;;;;;;;;;;;;2143344;59;952;-91
2021/08/11 11:39:31;;;;;;;;;;;;;;;;;;2146035;67;1297;-89
2021/08/11 11:42:30;;;;;;;;;;;;;;;;;;2145152;59;1027;-90
2021/08/11 11:45:31;;;;;;;;;;;;;;;;;;2141974;67;1906;-90
2021/08/11 11:48:20;;;;;;;;;;;;;;;;;;2142951;67;1317;-90
2021/08/11 11:51:05;;;;;;;;;;;;;;;;;;2145848;67;1404;-90
2021/08/11 11:53:45;;;;;;;;;;;;;;;;;;2145061;59;1064;-88
2021/08/11 11:56:11;;;;;;;;;;;;;;;;;;2141669;59;1276;-91
2021/08/11 11:58:47;;;;;;;;;;;;;;;;;;2145154;67;1698;-89
2021/08/11 12:01:15;;;;;;;;;;;;;;;;;;2143281;59;1066;-90
2021/08/11 12:03:51;;;;;;;;;;;;;;;;;;2145080;59;1342;-90
2021/08/11 12:06:45;;;;;;;;;;;;;;;;;;2145493;67;1904;-90
2021/08/11 12:09:11;;;;;;;;;;;;;;;;;;2145950;59;981;-89
2021/08/11 12:11:36;;;;;;;;;;;;;;;;;;2145492;60;1058;-90
2021/08/11 12:14:02;;;;;;;;;;;;;;;;;;2146164;67;1113;-89
2021/08/11 12:16:46;;;;;;;;;;;;;;;;;;2145387;67;1281;-89
2021/08/11 12:19:19;;;;;;;;;;;;;;;;;;2146198;59;1050;-89
2021/08/11 12:21:47;;;;;;;;;;;;;;;;;;2146103;59;1124;-90
2021/08/11 12:24:12;;;;;;;;;;;;;;;;;;2146280;67;1944;-89
2021/08/11 12:26:39;;;;;;;;;;;;;;;;;;2146046;59;1470;-92
2021/08/11 12:29:16;;;;;;;;;;;;;;;;;;2146058;59;1235;-89
2021/08/11 12:31:46;;;;;;;;;;;;;;;;;;2145446;67;1195;-90
2021/08/11 12:34:20;;;;;;;;;;;;;;;;;;2144334;59;1142;-89
2021/08/11 12:36:45;;;;;;;;;;;;;;;;;;2145877;59;1325;-89
2021/08/11 12:39:12;;;;;;;;;;;;;;;;;;2146192;67;1266;-89
2021/08/11 12:41:38;;;;;;;;;;;;;;;;;;2148527;59;1298;-90
2021/08/11 12:44:21;;;;;;;;;;;;;;;;;;2147037;59;1953;-90
2021/08/11 12:47:03;;;;;;;;;;;;;;;;;;2146656;59;1121;-88
2021/08/11 12:49:49;;;;;;;;;;;;;;;;;;2146282;59;1236;-89
2021/08/11 12:52:17;;;;;;;;;;;;;;;;;;2150184;59;1221;-89
2021/08/11 12:54:51;;;;;;;;;;;;;;;;;;2150827;59;1269;-89
2021/08/11 12:57:40;;;;;;;;;;;;;;;;;;2150602;59;1094;-89
2021/08/11 13:00:14;;;;;;;;;;;;;;;;;;2150186;67;1316;-91
2021/08/11 13:02:46;;;;;;;;;;;;;;;;;;2150532;67;955;-90
2021/08/11 13:05:30;;;;;;;;;;;;;;;;;;2150387;60;1921;-89
2021/08/11 13:08:03;;;;;;;;;;;;;;;;;;2151881;60;1101;-89
2021/08/11 13:10:52;;;;;;;;;;;;;;;;;;2151683;66;1231;-90
2021/08/11 13:16:32;;;;;;;;;;;;;;;;;;2147760;59;1387;-92
2021/08/11 13:19:32;;;;;;;;;;;;;;;;;;2146332;60;1134;-90
2021/08/11 13:25:09;;;;;;;;;;;;;;;;;;2150298;67;1913;-90
2021/08/11 13:27:52;;;;;;;;;;;;;;;;;;2145874;67;903;-89
2021/08/11 13:30:52;;;;;;;;;;;;;;;;;;2150572;67;2081;-89
2021/08/11 13:33:18;;;;;;;;;;;;;;;;;;2150561;67;1255;-91
2021/08/11 13:35:43;;;;;;;;;;;;;;;;;;2150772;59;1285;-89
2021/08/11 13:38:23;;;;;;;;;;;;;;;;;;2149591;59;887;-90
2021/08/11 13:41:03;;;;;;;;;;;;;;;;;;2142860;67;1367;-92
2021/08/11 13:43:28;;;;;;;;;;;;;;;;;;2145574;59;1065;-89
2021/08/11 13:45:53;;;;;;;;;;;;;;;;;;2147197;67;1931;-90
2021/08/11 13:48:26;;;;;;;;;;;;;;;;;;2150406;67;996;-90
2021/08/11 13:51:00;;;;;;;;;;;;;;;;;;2150941;59;803;-89
2021/08/11 14:06:44;;;;;;;;;;;;;;;;;;2142831;58;17818;-55
2021/08/11 14:09:09;;;;;;;;;;;;;;;;;;2149135;66;1730;-57
2021/08/11 14:12:07;;;;;;;;;;;;;;;;;;2139618;59;1983;-51
2021/08/11 14:14:34;;;;;;;;;;;;;;;;;;2126143;59;15624;-56
2021/08/11 14:16:59;;;;;;;;;;;;;;;;;;2127312;67;1446;-54
2021/08/11 14:19:25;;;;;;;;;;;;;;;;;;2125471;58;2402;-54
2021/08/11 14:25:10;;;;;;;;;;;;;;;;;;2101491;58;18052;-61
2021/08/11 14:26:47;;;;;;;;;;;;;;;;;;213249;58;19207;-61
2021/08/11 14:26:52;;;;;;;;;;;;;;;;;;68178;64;15838;-63
2021/08/11 14:26:57;;;;;;;;;;;;;;;;;;72932;67;1647;-63
2021/08/11 14:27:08;;;;;;;;;;;;;;;;;;73424;67;959;-62
2021/08/11 14:27:13;;;;;;;;;;;;;;;;;;68028;64;18132;-62
2021/08/11 14:27:19;;;;;;;;;;;;;;;;;;73196;67;1143;-63
2021/08/11 14:27:24;;;;;;;;;;;;;;;;;;73285;67;935;-63
2021/08/11 14:27:29;;;;;;;;;;;;;;;;;;73329;67;1566;-64
2021/08/11 14:27:34;;;;;;;;;;;;;;;;;;73298;67;856;-64
2021/08/11 14:27:39;;;;;;;;;;;;;;;;;;73318;67;1203;-64
2021/08/11 14:27:45;;;;;;;;;;;;;;;;;;73279;67;1265;-64
2021/08/11 14:27:50;;;;;;;;;;;;;;;;;;73311;67;1128;-64
2021/08/11 14:27:55;;;;;;;;;;;;;;;;;;70793;67;23539;-64
2021/08/11 14:28:00;;;;;;;;;;;;;;;;;;68631;63;15618;-64
2021/08/11 14:28:05;;;;;;;;;;;;;;;;;;71207;67;999;-64
2021/08/11 14:28:10;;;;;;;;;;;;;;;;;;73130;63;19078;-62
2021/08/11 14:28:15;;;;;;;;;;;;;;;;;;73272;67;1289;-64
2021/08/11 14:28:21;;;;;;;;;;;;;;;;;;73362;67;845;-64
2021/08/11 14:28:26;;;;;;;;;;;;;;;;;;73369;67;1207;-63
2021/08/11 14:28:31;;;;;;;;;;;;;;;;;;73364;67;1708;-63
2021/08/11 14:28:37;;;;;;;;;;;;;;;;;;73355;67;1171;-64
2021/08/11 14:28:42;;;;;;;;;;;;;;;;;;73325;67;1269;-64
2021/08/11 14:28:47;;;;;;;;;;;;;;;;;;73717;66;1267;-67
2021/08/11 14:28:54;;;;;;;;;;;;;;;;;;73597;66;1821;-66
2021/08/11 14:28:59;;;;;;;;;;;;;;;;;;72858;67;1214;-67
2021/08/11 14:29:04;;;;;;;;;;;;;;;;;;73356;67;867;-64
2021/08/11 14:29:10;;;;;;;;;;;;;;;;;;73359;67;892;-72
2021/08/11 14:29:18;;;;;;;;;;;;;;;;;;73361;67;801;-65
2021/08/11 14:29:23;;;;;;;;;;;;;;;;;;73347;67;888;-60
2021/08/11 14:29:28;;;;;;;;;;;;;;;;;;73306;67;1558;-64
2021/08/11 14:29:33;;;;;;;;;;;;;;;;;;73230;67;970;-64
2021/08/11 14:29:39;;;;;;;;;;;;;;;;;;73235;67;1159;-62
2021/08/11 14:30:16;;;;;;;;;;;;;;;;;;221802;58;1675;-62
2021/08/11 14:30:21;;;;;;;;;;;;;;;;;;73741;67;1072;-61
2021/08/11 14:30:26;;;;;;;;;;;;;;;;;;73775;67;971;-61
2021/08/11 14:30:31;;;;;;;;;;;;;;;;;;73506;67;2192;-62
2021/08/11 14:30:37;;;;;;;;;;;;;;;;;;73552;67;1147;-61
2021/08/11 14:30:42;;;;;;;;;;;;;;;;;;73577;67;1257;-61
2021/08/11 14:30:47;;;;;;;;;;;;;;;;;;73669;67;903;-59
2021/08/11 14:30:52;;;;;;;;;;;;;;;;;;73608;67;1608;-61
2021/08/11 14:30:57;;;;;;;;;;;;;;;;;;73251;67;1317;-61
2021/08/11 14:31:03;;;;;;;;;;;;;;;;;;73631;67;1042;-62
2021/08/11 14:31:08;;;;;;;;;;;;;;;;;;73714;67;835;-60
2021/08/11 14:31:13;;;;;;;;;;;;;;;;;;73625;67;905;-61
2021/08/11 14:31:20;;;;;;;;;;;;;;;;;;73670;67;977;-60
2021/08/11 14:31:25;;;;;;;;;;;;;;;;;;70361;66;20781;-62
2021/08/11 14:31:30;;;;;;;;;;;;;;;;;;71572;66;2026;-61
2021/08/11 14:31:36;;;;;;;;;;;;;;;;;;73580;66;1696;-60
2021/08/11 14:31:41;;;;;;;;;;;;;;;;;;73952;66;820;-60
2021/08/11 14:31:47;;;;;;;;;;;;;;;;;;73395;67;874;-60
2021/08/11 14:31:52;;;;;;;;;;;;;;;;;;73294;67;1758;-60
2021/08/11 14:31:57;;;;;;;;;;;;;;;;;;73328;67;875;-61
2021/08/11 14:32:03;;;;;;;;;;;;;;;;;;73290;67;906;-60
2021/08/11 14:32:08;;;;;;;;;;;;;;;;;;73207;67;1445;-63
2021/08/11 14:32:13;;;;;;;;;;;;;;;;;;73371;67;1162;-63
2021/08/11 14:32:18;;;;;;;;;;;;;;;;;;73393;67;918;-64
2021/08/11 14:32:23;;;;;;;;;;;;;;;;;;73455;67;867;-57
2021/08/11 14:32:29;;;;;;;;;;;;;;;;;;73340;67;1949;-60
2021/08/11 14:32:34;;;;;;;;;;;;;;;;;;73399;67;1122;-63
2021/08/11 14:32:39;;;;;;;;;;;;;;;;;;73279;67;1189;-63
2021/08/11 14:33:27;;;;;;;;;;;;;;;;;;215984;58;16865;-60
2021/08/11 14:33:32;;;;;;;;;;;;;;;;;;73906;66;1659;-59
2021/08/11 14:33:37;;;;;;;;;;;;;;;;;;67834;66;85676;-62
2021/08/11 14:33:42;;;;;;;;;;;;;;;;;;73819;66;1256;-61
2021/08/11 14:33:47;;;;;;;;;;;;;;;;;;73994;66;886;-62
2021/08/11 14:33:52;;;;;;;;;;;;;;;;;;73933;66;2026;-61
2021/08/11 14:33:58;;;;;;;;;;;;;;;;;;73935;67;965;-61
2021/08/11 14:34:03;;;;;;;;;;;;;;;;;;73894;67;969;-62
2021/08/11 14:34:08;;;;;;;;;;;;;;;;;;73953;67;774;-58
2021/08/11 14:34:13;;;;;;;;;;;;;;;;;;73897;67;847;-61
2021/08/11 14:34:18;;;;;;;;;;;;;;;;;;73925;67;784;-63
2021/08/11 14:34:24;;;;;;;;;;;;;;;;;;73905;67;1171;-61
2021/08/11 14:34:29;;;;;;;;;;;;;;;;;;73791;66;1950;-61
2021/08/11 14:34:34;;;;;;;;;;;;;;;;;;73941;66;807;-62
2021/08/11 14:34:39;;;;;;;;;;;;;;;;;;73778;66;1176;-61
2021/08/11 14:34:44;;;;;;;;;;;;;;;;;;73912;66;1339;-64
2021/08/11 14:34:49;;;;;;;;;;;;;;;;;;73899;66;1266;-61
2021/08/11 14:34:55;;;;;;;;;;;;;;;;;;73675;66;2009;-61
2021/08/11 14:35:01;;;;;;;;;;;;;;;;;;73654;66;1395;-59
2021/08/11 14:35:08;;;;;;;;;;;;;;;;;;73907;66;1246;-58
2021/08/11 14:35:13;;;;;;;;;;;;;;;;;;74062;66;873;-59
2021/08/11 14:35:20;;;;;;;;;;;;;;;;;;74006;66;997;-59
2021/08/11 14:35:25;;;;;;;;;;;;;;;;;;73963;66;888;-61
2021/08/11 14:35:30;;;;;;;;;;;;;;;;;;73833;66;2033;-63
2021/08/11 14:35:35;;;;;;;;;;;;;;;;;;73856;66;965;-63
2021/08/11 14:35:40;;;;;;;;;;;;;;;;;;73727;66;1245;-61
2021/08/11 14:35:46;;;;;;;;;;;;;;;;;;73861;67;1056;-58
2021/08/11 14:35:51;;;;;;;;;;;;;;;;;;73847;66;1537;-60
2021/08/11 14:35:56;;;;;;;;;;;;;;;;;;72904;66;14070;-59